地図

経路データ

SID SEASON NUMBER BASIN SUBBASIN NAME ISO_TIME NATURE LAT LON WMO_WIND WMO_PRES WMO_AGENCY TRACK_TYPE DIST2LAND LANDFALL IFLAG USA_AGENCY USA_ATCF_ID USA_LAT USA_LON USA_RECORD USA_STATUS USA_WIND USA_PRES USA_SSHS USA_R34_NE USA_R34_SE USA_R34_SW USA_R34_NW USA_R50_NE USA_R50_SE USA_R50_SW USA_R50_NW USA_R64_NE USA_R64_SE USA_R64_SW USA_R64_NW USA_POCI USA_ROCI USA_RMW USA_EYE TOKYO_LAT TOKYO_LON TOKYO_GRADE TOKYO_WIND TOKYO_PRES TOKYO_R50_DIR TOKYO_R50_LONG TOKYO_R50_SHORT TOKYO_R30_DIR TOKYO_R30_LONG TOKYO_R30_SHORT TOKYO_LAND CMA_LAT CMA_LON CMA_CAT CMA_WIND CMA_PRES HKO_LAT HKO_LON HKO_CAT HKO_WIND HKO_PRES NEWDELHI_LAT NEWDELHI_LON NEWDELHI_GRADE NEWDELHI_WIND NEWDELHI_PRES NEWDELHI_CI NEWDELHI_DP NEWDELHI_POCI REUNION_LAT REUNION_LON REUNION_TYPE REUNION_WIND REUNION_PRES REUNION_TNUM REUNION_CI REUNION_RMW REUNION_R34_NE REUNION_R34_SE REUNION_R34_SW REUNION_R34_NW REUNION_R50_NE REUNION_R50_SE REUNION_R50_SW REUNION_R50_NW REUNION_R64_NE REUNION_R64_SE REUNION_R64_SW REUNION_R64_NW BOM_LAT BOM_LON BOM_TYPE BOM_WIND BOM_PRES BOM_TNUM BOM_CI BOM_RMW BOM_R34_NE BOM_R34_SE BOM_R34_SW BOM_R34_NW BOM_R50_NE BOM_R50_SE BOM_R50_SW BOM_R50_NW BOM_R64_NE BOM_R64_SE BOM_R64_SW BOM_R64_NW BOM_ROCI BOM_POCI BOM_EYE BOM_POS_METHOD BOM_PRES_METHOD NADI_LAT NADI_LON NADI_CAT NADI_WIND NADI_PRES WELLINGTON_LAT WELLINGTON_LON WELLINGTON_WIND WELLINGTON_PRES DS824_LAT DS824_LON DS824_STAGE DS824_WIND DS824_PRES TD9636_LAT TD9636_LON TD9636_STAGE TD9636_WIND TD9636_PRES TD9635_LAT TD9635_LON TD9635_WIND TD9635_PRES TD9635_ROCI NEUMANN_LAT NEUMANN_LON NEUMANN_CLASS NEUMANN_WIND NEUMANN_PRES MLC_LAT MLC_LON MLC_CLASS MLC_WIND MLC_PRES USA_GUST BOM_GUST BOM_GUST_PER REUNION_GUST REUNION_GUST_PER USA_SEAHGT USA_SEARAD_NE USA_SEARAD_SE USA_SEARAD_SW USA_SEARAD_NW STORM_SPEED STORM_DIR
1963047S13128 1963 21 SI WA NOT_NAMED 1963-02-15 16:00:00 NR -13.0000 128.000 main 129 129 __________O___ -1 -13.0000 128.000 1 20 1 88
1963047S13128 1963 21 SI WA NOT_NAMED 1963-02-15 18:00:00 TS -12.9986 128.042 main 129 129 O_________P___ jtwc_sh SH321963 -13.0000 128.100 20 -1 -12.9971 127.985 1 19 0 0
1963047S13128 1963 21 SI WA NOT_NAMED 1963-02-15 21:00:00 TS -12.9813 128.013 main 129 124 P_________P___ SH321963 -12.9624 128.080 17 -1 -13.0064 127.923 1 17 2 265
1963047S13128 1963 21 SI WA NOT_NAMED 1963-02-15 23:30:00 TS -13.0156 127.854 1006 bom main 124 117 P_____O___P___ SH321963 -12.9853 127.948 15 -1 -13.1000 127.500 1006 -13.0400 127.801 1 16 5 257
1963047S13128 1963 21 SI WA NOT_NAMED 1963-02-16 00:00:00 TS -13.0372 127.772 main 117 70 O_____P__OP___ jtwc_sh SH321963 -13.0000 127.900 15 -1 -13.1278 127.413 -13.1000 127.500 TC 15 1006 -13.0507 127.765 1 16 9 251
1963047S13128 1963 21 SI WA NOT_NAMED 1963-02-16 03:00:00 TS -13.1861 127.337 main 70 68 P_____P__PP___ SH321963 -13.1625 127.447 15 -1 -13.2963 126.891 -13.4633 126.543 TC -13.1507 127.450 1 15 10 251
1963047S13128 1963 21 SI WA NOT_NAMED 1963-02-16 04:00:00 TS -13.2570 127.127 main 55 46 P_____P__PO___ SH321963 -13.2370 127.247 15 -1 -13.3539 126.715 -13.5842 126.224 TC -13.2000 127.300 1 15 13 250
1963047S13128 1963 21 SI WA NOT_NAMED 1963-02-16 06:00:00 TS -13.4113 126.702 main 49 35 O_____P__PP_O_ jtwc_sh SH321963 -13.4000 126.800 15 -1 -13.4732 126.357 -13.8261 125.585 TC -13.3249 126.926 1 14 -13.6000 126.400 TC 25 1003 14 250
1963047S13128 1963 21 SI WA NOT_NAMED 1963-02-16 09:00:00 TS -13.6511 126.012 main 35 35 P_____P__PP_P_ SH321963 -13.6350 126.080 12 -1 -13.6666 125.800 -14.1905 124.631 TC -13.5684 126.220 1 12 -13.8503 125.750 TC 25 1002 15 250
1963047S13128 1963 21 SI WA NOT_NAMED 1963-02-16 12:00:00 TS -13.9203 125.272 main 55 54 O_____P__PP_O_ jtwc_sh SH321963 -13.9000 125.300 10 -1 -13.8843 125.209 -14.5587 123.685 TC -13.8622 125.409 1 11 -14.1000 125.100 TC 25 1001 15 249
1963047S13128 1963 21 SI WA NOT_NAMED 1963-02-16 15:00:00 TS -14.2113 124.536 main 87 87 P_____P__PP_P_ SH321963 -14.1923 124.542 10 -1 -14.1344 124.575 -14.9330 122.752 TC -14.1876 124.572 1 10 -14.3498 124.450 TC 30 999 15 248
1963047S13128 1963 21 SI WA NOT_NAMED 1963-02-16 16:00:00 TS -14.3097 124.294 main 102 102 P_____P__PO_P_ SH321963 -14.2944 124.292 10 -1 -14.2263 124.352 -15.0595 122.445 TC -14.3000 124.300 1 10 -14.4332 124.233 TC 31 999 15 247
1963047S13128 1963 21 SI WA NOT_NAMED 1963-02-16 18:00:00 TS -14.5023 123.820 main 133 133 O_____P__PP_O_ jtwc_sh SH321963 -14.5000 123.800 10 -1 -14.4245 123.885 -15.3157 121.836 TC -14.4869 123.813 1 13 -14.6000 123.800 TC 35 998 15 248
1963047S13128 1963 21 SI WA NOT_NAMED 1963-02-16 21:00:00 TS -14.7800 123.115 main 165 162 P_____P__PP_P_ SH321963 -14.7698 123.085 17 -1 -14.7624 123.130 -15.7093 120.941 TC -14.7860 123.096 1 18 -14.8120 123.179 TC 37 996 15 246
1963047S13128 1963 21 SI WA NOT_NAMED 1963-02-17 00:00:00 TS -15.1170 122.399 main 165 159 O_____P__PP_O_ jtwc_sh SH321963 -15.1000 122.400 25 -1 -15.1555 122.297 -16.1165 120.072 TC -15.1296 122.397 1 23 -15.1000 122.500 TC 40 995 16 243
1963047S13128 1963 21 SI WA NOT_NAMED 1963-02-17 01:00:00 TS -15.2531 122.155 995 bom main 153 153 P_____O__PP_P_ SH321963 -15.2358 122.177 25 -1 -15.3000 122.000 995 4 -16.2556 119.789 TC -15.2583 122.169 1 25 -15.2353 122.250 TC 40 995 17 238
1963047S13128 1963 21 SI WA NOT_NAMED 1963-02-17 03:00:00 TS -15.5604 121.658 main 162 170 P_____P__PP_P_ SH321963 -15.5473 121.742 27 -1 -15.6103 121.376 -16.5397 119.233 TC -15.5426 121.720 1 28 -15.5546 121.710 TC 40 995 17 237
1963047S13128 1963 21 SI WA NOT_NAMED 1963-02-17 04:00:00 TS -15.7298 121.405 main 178 170 P_____P__PO_P_ SH321963 -15.7210 121.528 28 -1 -15.7758 121.052 -16.6849 118.960 TC -15.7000 121.500 1 30 -15.7312 121.420 TC 40 995 18 234
1963047S13128 1963 21 SI WA NOT_NAMED 1963-02-17 06:00:00 TS -16.0957 120.898 main 186 186 O_____P__PP_O_ jtwc_sh SH321963 -16.1000 121.100 30 -1 -16.1264 120.384 -16.9820 118.426 TC -16.0523 121.104 1 29 -16.1000 120.800 TC 40 995 19 232
1963047S13128 1963 21 SI WA NOT_NAMED 1963-02-17 09:00:00 TS -16.6895 120.109 main 233 233 P_____P__PP_P_ SH321963 -16.7348 120.450 27 -1 -16.6993 119.352 -17.4460 117.657 TC -16.6508 120.531 1 27 -16.6276 119.765 TC 40 995 20 231
1963047S13128 1963 21 SI WA NOT_NAMED 1963-02-17 12:00:00 TS -17.3257 119.309 main 292 243 O_____P__PP_O_ jtwc_sh SH321963 -17.4000 119.800 25 -1 -17.3249 118.313 -17.9347 116.930 TC -17.3037 119.932 1 26 -17.2000 118.700 TC 40 995 20 230
1963047S13128 1963 21 SI WA NOT_NAMED 1963-02-17 15:00:00 TS -17.9588 118.544 995 bom main 243 235 P_____O__PP_P_ SH321963 -17.9989 119.216 25 -1 -18.0000 117.300 995 -18.4513 116.246 TC -17.9770 119.254 1 25 -17.8193 117.734 TC 40 995 20 229
1963047S13128 1963 21 SI WA NOT_NAMED 1963-02-17 16:00:00 TS -18.1741 118.276 main 228 205 P_____P__PO_P_ SH321963 -18.1965 119.003 25 -1 -18.2378 116.951 995 -18.6302 116.029 TC -18.2000 119.000 1 25 -18.0394 117.422 TC 40 995 21 231
1963047S13128 1963 21 SI WA NOT_NAMED 1963-02-17 18:00:00 TS -18.6126 117.683 main 205 145 O_____P__PP_O_ jtwc_sh SH321963 -18.6000 118.500 25 -1 -18.7335 116.257 995 -18.9988 115.611 TC -18.6297 118.358 1 28 -18.5000 116.800 TC 40 995 23 234
1963047S13128 1963 21 SI WA NOT_NAMED 1963-02-17 21:00:00 TS -19.3054 116.646 main 145 118 P_____P__PP_P_ SH321963 -19.2509 117.438 32 -1 -19.5013 115.272 995 -19.5806 115.028 TC -19.2735 117.299 1 33 -19.2504 115.783 TC 40 995 24 235
1963047S13128 1963 21 SI WA NOT_NAMED 1963-02-18 00:00:00 TS -20.0021 115.578 main 118 113 O_____P__OP_O_ jtwc_sh SH321963 -19.9000 116.300 40 0 -20.2579 114.432 995 -20.2000 114.500 TC 40 995 -19.9033 116.229 1 38 -20.0000 114.900 TC 40 995 24 235
1963047S13128 1963 21 SI WA NOT_NAMED 1963-02-18 01:00:00 TS -20.2290 115.243 995 bom main 124 113 P_____O__PP_P_ SH321963 -20.1081 115.953 40 0 -20.5000 114.200 995 -20.4152 114.337 TC 39 995 -20.1078 115.892 1 40 -20.2276 114.671 TC 39 995 21 231
1963047S13128 1963 21 SI WA NOT_NAMED 1963-02-18 03:00:00 TS -20.6609 114.698 main 113 105 P_____P__PP_P_ SH321963 -20.5149 115.302 42 0 -20.9583 113.810 995 -20.8555 114.033 TC 38 995 -20.5065 115.272 1 43 -20.6643 114.301 TC 37 995 20 229
1963047S13128 1963 21 SI WA NOT_NAMED 1963-02-18 04:00:00 TS -20.8772 114.452 main 98 67 P_____P__PO_P_ SH321963 -20.7133 115.007 43 0 -21.1810 113.651 995 -21.0784 113.892 TC 38 995 -20.7000 115.000 2 45 -20.8770 114.152 TC 36 995 18 224
1963047S13128 1963 21 SI WA NOT_NAMED 1963-02-18 06:00:00 TS -21.3025 114.041 main 67 30 O_____P__PP_O_ jtwc_sh SH321963 -21.1000 114.500 45 0 -21.6140 113.399 996 -21.5252 113.636 TC 37 996 -21.0746 114.543 2 43 -21.3000 113.900 TC 35 996 16 217
1963047S13128 1963 21 SI WA NOT_NAMED 1963-02-18 09:00:00 TS -21.9298 113.606 main 38 23 P_____P__PP_P_ SH321963 -21.6574 113.970 42 0 -22.2327 113.154 997 -22.1824 113.321 TC 36 997 -21.6115 114.046 2 40 -21.9648 113.540 TC 35 996 14 208
1963047S13128 1963 21 SI WA NOT_NAMED 1963-02-18 12:00:00 TS -22.5427 113.319 main 32 30 O_____P__OP_O_ jtwc_sh SH321963 -22.2000 113.600 40 0 -22.8144 113.025 997 -22.8000 113.100 TC 35 998 -22.1278 113.712 2 38 -22.6000 113.300 TC 35 997 14 203
1963047S13128 1963 21 SI WA NOT_NAMED 1963-02-18 13:00:00 TS -22.7998 113.199 998 bom main 46 46 ______O__PP_P_ SH321963 -1 -23.0000 113.000 998 -22.9792 113.040 TC 34 998 -22.2970 113.625 2 37 -22.7973 113.238 TC 34 997 14 199
1963047S13128 1963 21 SI WA NOT_NAMED 1963-02-18 15:00:00 TS -23.1866 113.074 main 71 71 ______P__PP_P_ SH321963 -1 -23.3460 112.912 998 -23.3182 112.957 TC 32 999 -22.6327 113.472 2 35 -23.1724 113.155 TC 32 998 13 196
1963047S13128 1963 21 SI WA NOT_NAMED 1963-02-18 16:00:00 TS -23.3983 113.014 main 75 52 ______P__PO_P_ SH321963 -1 -23.5115 112.884 999 -23.4808 112.932 TC 31 999 -22.8000 113.400 2 35 -23.3520 113.129 TC 31 998 12 191
1963047S13128 1963 21 SI WA NOT_NAMED 1963-02-18 18:00:00 TS -23.7776 112.955 main 52 42 ______P__P__O_ -1 -23.8335 112.856 999 -23.7994 112.909 TC 30 1000 2 -23.7000 113.100 TC 30 999 10 184
1963047S13128 1963 21 SI WA NOT_NAMED 1963-02-18 21:00:00 TS -24.2648 112.960 main 42 40 ______P__P__P_ -1 -24.3134 112.878 1000 -24.2809 112.931 TC 27 1001 2 -24.2000 113.070 TC 27 1000 10 177
1963047S13128 1963 21 SI WA NOT_NAMED 1963-02-19 00:00:00 TS -24.7732 113.020 main 60 60 ______P__O__O_ -1 -24.8196 112.961 1001 -24.8000 113.000 TC 25 1002 2 -24.7000 113.100 TC 25 1001 11 173
1963047S13128 1963 21 SI WA NOT_NAMED 1963-02-19 01:00:00 TS -24.9587 113.046 1002 bom main 61 51 ______O__P__P_ -1 -25.0000 113.000 1002 -24.9873 113.029 TC 25 1002 2 -24.8749 113.123 TC 25 1001 12 171
1963047S13128 1963 21 SI WA NOT_NAMED 1963-02-19 03:00:00 TS -25.3407 113.118 main 52 20 ______P__P__P_ -1 -25.3824 113.090 1002 -25.3814 113.094 TC 25 1002 2 -25.2375 113.185 TC 25 1001 12 170
1963047S13128 1963 21 SI WA NOT_NAMED 1963-02-19 06:00:00 TS -25.9462 113.248 main 24 0 ______P__O__O_ -1 -25.9923 113.245 1002 -26.0000 113.200 TC 25 1002 -25.8000 113.300 TC 25 1002 13 169
1963047S13128 1963 21 SI WA NOT_NAMED 1963-02-19 07:00:00 NR -26.2000 113.300 1002 bom main 0 ______O_______ -1 -26.2000 113.300 1002 TC TC 16 172

IBTrACS Databaseについて

本データベースは、米国NOAAが公開する1842年以降の世界の熱帯低気圧のベストトラックデータアーカイブInternational Best Track Archive for Climate Stewardship (IBTrACS)を、ウェブで閲覧しやすい形式に変換したものです。

最終更新日:2021-12-01